Motegi, Japan
Current Conditions -  °F | °C
As of 2:12 PM on Thursday 23 Oct 2014 (Local Time) from RJAH Reporting Station
Rain Showers Rain Showers  
Wind Chill: 57°   Ceiling: 2500
Heat Index: 57°   Visibility: 6mi
Dew Point: 48°   Wind: 12mph
Humidity: 72%   Direction: 30°NNE
Pressure: 30.03"   Gusts: NA
Location:  36.53°N, 140.19°E
Report Text: RJAH 230512Z 03010KT 9999 -SHRA FEW008 BKN025 BKN040 14/09 Q1017 RMK 2ST008 5CU025 7SC040 A3005
Loading
Personal Weather Stations






























Interactive Weather Map
Tropical Storm Tracking
New forecast layout! Learn more

10-Day Weather Forecast

Advertisements
Track Severe Weather on mobile